Time;durP1;ratioP1;P1;durP2;ratioP2;P2;SDS_P1;SDS_P2;PMS_P1;PMS_P2;Temp;Humidity;BMP_temperature;BMP_pressure;BME280_temperature;BME280_humidity;BME280_pressure;Samples;Min_cycle;Max_cycle;Signal;HPM_P1;HPM_P2
2023/10/24 00:02:11;;;;;;;11.43;8.90;;;;;;;;;;5074069;28;20443;-81
2023/10/24 00:04:37;;;;;;;13.27;9.70;;;;;;;;;;5072622;28;20980;-81
2023/10/24 00:07:04;;;;;;;19.23;10.60;;;;;;;;;;5073428;28;20439;-81
2023/10/24 00:09:30;;;;;;;13.00;10.43;;;;;;;;;;5072408;28;20496;-81
2023/10/24 00:11:56;;;;;;;11.63;10.10;;;;;;;;;;5072943;28;20860;-82
2023/10/24 00:14:27;;;;;;;11.80;9.63;;;;;;;;;;5073800;28;20463;-81
2023/10/24 00:16:53;;;;;;;13.77;10.77;;;;;;;;;;5072785;28;20489;-81
2023/10/24 00:19:19;;;;;;;14.80;10.90;;;;;;;;;;5073868;28;20443;-81
2023/10/24 00:21:46;;;;;;;16.97;11.47;;;;;;;;;;5073977;28;20971;-81
2023/10/24 00:24:14;;;;;;;13.37;10.10;;;;;;;;;;5073800;28;20824;-81
2023/10/24 00:26:40;;;;;;;14.87;11.53;;;;;;;;;;5074278;28;20839;-81
2023/10/24 00:29:07;;;;;;;14.90;10.57;;;;;;;;;;5072740;28;20439;-81
2023/10/24 00:31:37;;;;;;;14.90;10.47;;;;;;;;;;5073773;28;20446;-81
2023/10/24 00:34:03;;;;;;;20.53;11.77;;;;;;;;;;5072817;28;20466;-81
2023/10/24 00:36:30;;;;;;;15.37;11.97;;;;;;;;;;5073321;28;20451;-81
2023/10/24 00:38:57;;;;;;;21.10;11.13;;;;;;;;;;5073955;28;20443;-81
2023/10/24 00:41:23;;;;;;;15.30;10.90;;;;;;;;;;5073329;28;20478;-81
2023/10/24 00:43:49;;;;;;;16.73;10.83;;;;;;;;;;5073955;28;20451;-81
2023/10/24 00:46:16;;;;;;;17.50;10.40;;;;;;;;;;5072261;28;20489;-81
2023/10/24 00:48:44;;;;;;;18.23;11.50;;;;;;;;;;5072745;28;20486;-81
2023/10/24 00:51:11;;;;;;;20.37;13.50;;;;;;;;;;5073310;28;20475;-81
2023/10/24 00:53:37;;;;;;;12.60;11.10;;;;;;;;;;5073492;28;20976;-81
2023/10/24 00:56:04;;;;;;;19.00;11.47;;;;;;;;;;5073260;28;20479;-82
2023/10/24 00:58:30;;;;;;;13.97;12.10;;;;;;;;;;5073986;28;20442;-80
2023/10/24 01:00:57;;;;;;;15.97;11.53;;;;;;;;;;5072123;28;21027;-81
2023/10/24 01:03:24;;;;;;;15.77;11.03;;;;;;;;;;5072162;28;20980;-81
2023/10/24 01:05:52;;;;;;;17.57;12.50;;;;;;;;;;5073492;28;20479;-81
2023/10/24 01:08:19;;;;;;;13.90;11.57;;;;;;;;;;5073613;28;20450;-81
2023/10/24 01:10:45;;;;;;;14.97;12.53;;;;;;;;;;5072417;28;20561;-81
2023/10/24 01:13:12;;;;;;;13.83;10.67;;;;;;;;;;5072259;28;20439;-81
2023/10/24 01:15:39;;;;;;;13.90;12.03;;;;;;;;;;5070807;28;20467;-81
2023/10/24 01:18:05;;;;;;;17.17;11.40;;;;;;;;;;5073920;28;20446;-81
2023/10/24 01:20:32;;;;;;;15.87;11.13;;;;;;;;;;5073066;28;20471;-80
2023/10/24 01:23:00;;;;;;;16.20;13.10;;;;;;;;;;5074077;28;20984;-81
2023/10/24 01:25:29;;;;;;;25.70;12.23;;;;;;;;;;5072929;28;20471;-81
2023/10/24 01:27:56;;;;;;;15.53;11.40;;;;;;;;;;5073455;28;20948;-81
2023/10/24 01:30:22;;;;;;;13.23;11.77;;;;;;;;;;5074329;28;20516;-81
2023/10/24 01:32:49;;;;;;;17.33;12.57;;;;;;;;;;5076048;28;20443;-81
2023/10/24 01:35:15;;;;;;;14.93;12.50;;;;;;;;;;5076882;28;20477;-81
2023/10/24 01:37:42;;;;;;;19.40;12.73;;;;;;;;;;5077275;28;20438;-82
2023/10/24 01:40:10;;;;;;;19.93;13.97;;;;;;;;;;5075866;28;20477;-81
2023/10/24 01:42:37;;;;;;;20.07;11.30;;;;;;;;;;5077004;28;20442;-81
2023/10/24 01:45:03;;;;;;;18.97;13.00;;;;;;;;;;5076510;28;20562;-82
2023/10/24 01:47:30;;;;;;;17.90;14.57;;;;;;;;;;5076950;28;20462;-81
2023/10/24 01:49:56;;;;;;;18.93;13.37;;;;;;;;;;5076669;28;20475;-81
2023/10/24 01:52:23;;;;;;;16.07;13.63;;;;;;;;;;5076404;28;20443;-81
2023/10/24 01:54:49;;;;;;;17.63;14.50;;;;;;;;;;5076623;28;20479;-81
2023/10/24 01:57:18;;;;;;;18.73;13.23;;;;;;;;;;5076754;28;20940;-81
2023/10/24 01:59:44;;;;;;;16.13;14.50;;;;;;;;;;5076914;28;20466;-81
2023/10/24 02:02:10;;;;;;;21.03;14.70;;;;;;;;;;5075343;28;20963;-81
2023/10/24 02:04:37;;;;;;;18.27;15.20;;;;;;;;;;5075750;28;20471;-81
2023/10/24 02:07:03;;;;;;;21.63;15.57;;;;;;;;;;5077106;28;20486;-81
2023/10/24 02:09:31;;;;;;;18.10;14.23;;;;;;;;;;5076468;28;20473;-81
2023/10/24 02:11:59;;;;;;;21.53;15.50;;;;;;;;;;5075222;28;21014;-81
2023/10/24 02:14:27;;;;;;;22.97;14.27;;;;;;;;;;5076100;28;20821;-81
2023/10/24 02:16:54;;;;;;;19.93;14.80;;;;;;;;;;5076612;28;20442;-81
2023/10/24 02:19:20;;;;;;;21.67;15.23;;;;;;;;;;5076187;28;20450;-81
2023/10/24 02:21:46;;;;;;;21.13;15.07;;;;;;;;;;5076608;28;20455;-81
2023/10/24 02:24:13;;;;;;;18.83;14.70;;;;;;;;;;5075787;28;20455;-81
2023/10/24 02:26:39;;;;;;;23.43;15.30;;;;;;;;;;5075012;28;20453;-81
2023/10/24 02:29:06;;;;;;;19.67;15.53;;;;;;;;;;5076030;28;20443;-81
2023/10/24 02:31:33;;;;;;;23.30;15.77;;;;;;;;;;5076478;28;20443;-81
2023/10/24 02:34:00;;;;;;;22.60;16.03;;;;;;;;;;5076562;28;20459;-81
2023/10/24 02:36:26;;;;;;;19.77;16.07;;;;;;;;;;5075842;28;20873;-81
2023/10/24 02:38:52;;;;;;;19.80;16.37;;;;;;;;;;5074662;28;20489;-81
2023/10/24 02:41:19;;;;;;;27.10;15.90;;;;;;;;;;5074494;28;20466;-81
2023/10/24 02:43:45;;;;;;;22.80;17.13;;;;;;;;;;5075585;28;20459;-81
2023/10/24 02:46:12;;;;;;;20.03;16.00;;;;;;;;;;5075376;28;20501;-81
2023/10/24 02:48:39;;;;;;;22.10;15.30;;;;;;;;;;5074611;28;20521;-81
2023/10/24 02:51:06;;;;;;;20.33;16.20;;;;;;;;;;5076197;28;20549;-81
2023/10/24 02:53:32;;;;;;;22.07;15.80;;;;;;;;;;5075462;28;20455;-81
2023/10/24 02:56:01;;;;;;;21.20;15.80;;;;;;;;;;5073393;28;20459;-81
2023/10/24 02:58:28;;;;;;;28.00;16.53;;;;;;;;;;5075611;28;20446;-81
2023/10/24 03:00:54;;;;;;;23.50;16.17;;;;;;;;;;5075541;28;20512;-81
2023/10/24 03:03:20;;;;;;;21.40;17.80;;;;;;;;;;5075717;28;20409;-81
2023/10/24 03:05:48;;;;;;;20.90;17.10;;;;;;;;;;5075243;28;20474;-81
2023/10/24 03:08:14;;;;;;;24.93;16.47;;;;;;;;;;5075477;28;20458;-81
2023/10/24 03:10:41;;;;;;;22.97;16.60;;;;;;;;;;5074998;28;20478;-81
2023/10/24 03:13:07;;;;;;;23.87;16.23;;;;;;;;;;5075453;28;20986;-81
2023/10/24 03:15:35;;;;;;;22.10;16.10;;;;;;;;;;5074622;28;20471;-81
2023/10/24 03:18:03;;;;;;;27.77;17.60;;;;;;;;;;5075542;28;20435;-81
2023/10/24 03:20:29;;;;;;;21.00;16.30;;;;;;;;;;5074900;28;20466;-81
2023/10/24 03:22:57;;;;;;;22.60;16.23;;;;;;;;;;5074951;28;20435;-81
2023/10/24 03:25:24;;;;;;;22.57;15.53;;;;;;;;;;5074549;28;20471;-81
2023/10/24 03:27:51;;;;;;;19.20;17.03;;;;;;;;;;5074878;28;20450;-81
2023/10/24 03:30:18;;;;;;;19.73;15.67;;;;;;;;;;5074783;28;20474;-81
2023/10/24 03:32:44;;;;;;;26.83;17.20;;;;;;;;;;5075187;28;20434;-81
2023/10/24 03:35:11;;;;;;;28.33;18.43;;;;;;;;;;5072862;28;21054;-81
2023/10/24 03:37:37;;;;;;;23.93;17.77;;;;;;;;;;5075068;28;20459;-81
2023/10/24 03:40:07;;;;;;;24.50;16.77;;;;;;;;;;5074348;28;20478;-81
2023/10/24 03:42:34;;;;;;;32.53;18.27;;;;;;;;;;5074505;28;20546;-81
2023/10/24 03:45:00;;;;;;;23.40;18.27;;;;;;;;;;5072432;28;20475;-81
2023/10/24 03:47:26;;;;;;;24.00;17.33;;;;;;;;;;5073994;28;20486;-81
2023/10/24 03:49:53;;;;;;;24.20;17.67;;;;;;;;;;5073866;28;20467;-81
2023/10/24 03:52:19;;;;;;;25.63;18.40;;;;;;;;;;5073811;28;20960;-81
2023/10/24 03:54:45;;;;;;;21.73;16.60;;;;;;;;;;5072016;28;20482;-81
2023/10/24 03:57:14;;;;;;;22.33;16.83;;;;;;;;;;5073988;28;20936;-81
2023/10/24 03:59:40;;;;;;;22.70;17.30;;;;;;;;;;5073832;28;20607;-81
2023/10/24 04:02:06;;;;;;;21.10;16.87;;;;;;;;;;5074494;28;20963;-81
2023/10/24 04:04:33;;;;;;;24.80;17.50;;;;;;;;;;5072481;28;20462;-81
2023/10/24 04:07:02;;;;;;;23.83;18.17;;;;;;;;;;5074085;28;20501;-81
2023/10/24 04:09:30;;;;;;;24.50;18.90;;;;;;;;;;5073960;28;20467;-81
2023/10/24 04:11:57;;;;;;;29.40;18.13;;;;;;;;;;5074495;28;20809;-81
2023/10/24 04:14:24;;;;;;;26.53;18.03;;;;;;;;;;5073290;28;20455;-81
2023/10/24 04:16:51;;;;;;;26.33;18.03;;;;;;;;;;5074250;28;20443;-81
2023/10/24 04:19:17;;;;;;;23.20;17.50;;;;;;;;;;5073975;28;20409;-81
2023/10/24 04:21:45;;;;;;;26.67;18.07;;;;;;;;;;5073708;28;20444;-81
2023/10/24 04:24:11;;;;;;;23.97;18.40;;;;;;;;;;5072565;28;20448;-81
2023/10/24 04:26:37;;;;;;;22.07;17.90;;;;;;;;;;5073073;28;20478;-81
2023/10/24 04:29:04;;;;;;;23.77;18.07;;;;;;;;;;5074100;28;20413;-81
2023/10/24 04:31:32;;;;;;;22.03;17.13;;;;;;;;;;5069997;28;20442;-81
2023/10/24 04:33:58;;;;;;;21.73;17.60;;;;;;;;;;5073465;28;20458;-81
2023/10/24 04:36:24;;;;;;;23.23;17.70;;;;;;;;;;5073521;28;20469;-81
2023/10/24 04:38:51;;;;;;;28.47;18.80;;;;;;;;;;5072729;28;20959;-81
2023/10/24 04:41:17;;;;;;;25.67;17.53;;;;;;;;;;5074052;28;20449;-81
2023/10/24 04:43:43;;;;;;;28.80;18.67;;;;;;;;;;5073104;28;20474;-81
2023/10/24 04:46:10;;;;;;;24.30;17.90;;;;;;;;;;5073413;28;20818;-81
2023/10/24 04:48:38;;;;;;;22.23;16.60;;;;;;;;;;5072916;28;20450;-81
2023/10/24 04:51:10;;;;;;;23.77;18.10;;;;;;;;;;5072458;28;20463;-81
2023/10/24 04:53:36;;;;;;;20.57;17.30;;;;;;;;;;5074537;28;20433;-81
2023/10/24 04:56:03;;;;;;;23.00;16.70;;;;;;;;;;5073689;28;20471;-81
2023/10/24 04:58:30;;;;;;;21.93;17.60;;;;;;;;;;5072207;28;20439;-82
2023/10/24 05:00:56;;;;;;;24.27;18.73;;;;;;;;;;5075039;28;20481;-82
2023/10/24 05:03:23;;;;;;;23.37;18.73;;;;;;;;;;5073969;28;20439;-82
2023/10/24 05:05:51;;;;;;;28.40;18.03;;;;;;;;;;5078689;28;20478;-82
2023/10/24 05:08:17;;;;;;;24.73;18.33;;;;;;;;;;5079869;28;20483;-82
2023/10/24 05:10:43;;;;;;;25.93;17.37;;;;;;;;;;5078719;28;20473;-82
2023/10/24 05:13:10;;;;;;;26.10;17.70;;;;;;;;;;5079335;28;20417;-81
2023/10/24 05:15:36;;;;;;;28.77;18.50;;;;;;;;;;5077365;28;20470;-82
2023/10/24 05:18:03;;;;;;;25.10;16.93;;;;;;;;;;5079122;28;20406;-81
2023/10/24 05:20:29;;;;;;;25.67;18.70;;;;;;;;;;5079908;28;20504;-80
2023/10/24 05:22:57;;;;;;;21.87;17.00;;;;;;;;;;5079284;28;20446;-83
2023/10/24 05:25:23;;;;;;;23.33;17.20;;;;;;;;;;5078076;28;20452;-83
2023/10/24 05:27:50;;;;;;;24.73;18.50;;;;;;;;;;5078616;28;20453;-83
2023/10/24 05:30:16;;;;;;;23.83;17.23;;;;;;;;;;5059134;28;20465;-82
2023/10/24 05:32:43;;;;;;;24.10;17.70;;;;;;;;;;5078805;28;20425;-83
2023/10/24 05:35:10;;;;;;;25.40;18.27;;;;;;;;;;5077334;28;20857;-83
2023/10/24 05:37:36;;;;;;;24.80;18.73;;;;;;;;;;5078035;28;20433;-82
2023/10/24 05:40:04;;;;;;;28.77;18.93;;;;;;;;;;5077579;28;20996;-83
2023/10/24 05:42:30;;;;;;;22.27;17.37;;;;;;;;;;5077661;28;20439;-83
2023/10/24 05:44:57;;;;;;;24.17;18.93;;;;;;;;;;5076035;28;20473;-84
2023/10/24 05:47:23;;;;;;;27.20;19.60;;;;;;;;;;5078081;28;20465;-81
2023/10/24 05:49:50;;;;;;;31.93;19.70;;;;;;;;;;5076504;28;20459;-82
2023/10/24 05:52:17;;;;;;;27.70;19.97;;;;;;;;;;5076920;28;20537;-82
2023/10/24 05:54:43;;;;;;;27.37;20.47;;;;;;;;;;5076798;28;20473;-82
2023/10/24 05:57:11;;;;;;;31.87;22.70;;;;;;;;;;5077170;28;20446;-83
2023/10/24 05:59:37;;;;;;;31.03;20.33;;;;;;;;;;5077530;28;20461;-84
2023/10/24 06:02:04;;;;;;;24.50;20.90;;;;;;;;;;5077360;28;20450;-83
2023/10/24 06:04:34;;;;;;;32.80;20.60;;;;;;;;;;5077250;28;20817;-83
2023/10/24 06:07:00;;;;;;;27.97;22.10;;;;;;;;;;5077748;28;20462;-83
2023/10/24 06:09:26;;;;;;;30.30;22.37;;;;;;;;;;5077128;28;20455;-83
2023/10/24 06:11:53;;;;;;;31.10;19.63;;;;;;;;;;5077684;28;20443;-83
2023/10/24 06:14:21;;;;;;;30.63;20.77;;;;;;;;;;5076971;28;20462;-83
2023/10/24 06:16:47;;;;;;;25.40;21.17;;;;;;;;;;5076379;28;20439;-83
2023/10/24 06:19:13;;;;;;;33.37;20.33;;;;;;;;;;5075671;28;20810;-84
2023/10/24 06:21:40;;;;;;;34.27;21.53;;;;;;;;;;5076373;28;20948;-83
2023/10/24 06:24:06;;;;;;;34.30;20.13;;;;;;;;;;5077275;28;20459;-82
2023/10/24 06:26:33;;;;;;;30.00;20.77;;;;;;;;;;5075754;28;20439;-84
2023/10/24 06:28:59;;;;;;;29.40;20.50;;;;;;;;;;5076278;28;20422;-83
2023/10/24 06:31:28;;;;;;;30.67;20.67;;;;;;;;;;5075917;28;20455;-83
2023/10/24 06:33:54;;;;;;;34.70;22.03;;;;;;;;;;5077241;28;20521;-83
2023/10/24 06:36:22;;;;;;;28.57;21.20;;;;;;;;;;5076855;28;20999;-82
2023/10/24 06:38:48;;;;;;;25.83;21.10;;;;;;;;;;5077673;28;20782;-81
2023/10/24 06:41:14;;;;;;;32.10;21.87;;;;;;;;;;5076918;28;20490;-81
2023/10/24 06:43:41;;;;;;;27.73;19.40;;;;;;;;;;5076367;28;20473;-83
2023/10/24 06:46:07;;;;;;;33.20;21.83;;;;;;;;;;5076592;28;20462;-83
2023/10/24 06:48:35;;;;;;;28.47;18.97;;;;;;;;;;5077199;28;20479;-83
2023/10/24 06:51:02;;;;;;;31.87;20.70;;;;;;;;;;5076293;28;20486;-83
2023/10/24 06:53:28;;;;;;;26.90;21.10;;;;;;;;;;5077481;28;20461;-83
2023/10/24 06:55:58;;;;;;;33.77;22.37;;;;;;;;;;5076803;28;20995;-83
2023/10/24 06:58:24;;;;;;;26.30;20.87;;;;;;;;;;5075713;28;20443;-82
2023/10/24 07:00:51;;;;;;;34.40;21.30;;;;;;;;;;5075282;28;20463;-83
2023/10/24 07:03:17;;;;;;;25.80;20.23;;;;;;;;;;5077082;28;20439;-83
2023/10/24 07:05:50;;;;;;;30.57;20.90;;;;;;;;;;5076307;28;20466;-83
2023/10/24 07:08:17;;;;;;;31.50;22.30;;;;;;;;;;5075155;28;20863;-83
2023/10/24 07:10:43;;;;;;;28.20;20.90;;;;;;;;;;5075653;28;20924;-83
2023/10/24 07:13:11;;;;;;;30.20;20.97;;;;;;;;;;5075664;28;20986;-84
2023/10/24 07:15:37;;;;;;;28.97;22.70;;;;;;;;;;5075712;28;20553;-82
2023/10/24 07:18:04;;;;;;;28.80;23.00;;;;;;;;;;5075136;28;20453;-83
2023/10/24 07:20:30;;;;;;;32.47;21.63;;;;;;;;;;5076127;28;20967;-81
2023/10/24 07:22:58;;;;;;;36.00;24.50;;;;;;;;;;5076570;28;20451;-81
2023/10/24 07:25:24;;;;;;;27.47;21.13;;;;;;;;;;5075584;28;20466;-81
2023/10/24 07:27:50;;;;;;;29.13;23.13;;;;;;;;;;5075258;28;20973;-82
2023/10/24 07:30:17;;;;;;;30.73;22.07;;;;;;;;;;5074584;28;20481;-81
2023/10/24 07:32:45;;;;;;;29.27;21.10;;;;;;;;;;5076081;28;20447;-83
2023/10/24 07:35:12;;;;;;;28.97;21.90;;;;;;;;;;5074644;28;20487;-83
2023/10/24 07:37:38;;;;;;;28.97;21.30;;;;;;;;;;5075186;28;20439;-83
2023/10/24 07:40:07;;;;;;;29.67;21.37;;;;;;;;;;5075834;28;20474;-83
2023/10/24 07:42:33;;;;;;;28.63;22.07;;;;;;;;;;5076130;28;20462;-83
2023/10/24 07:45:00;;;;;;;26.13;20.23;;;;;;;;;;5075005;28;20996;-82
2023/10/24 07:47:27;;;;;;;25.87;19.57;;;;;;;;;;5074423;28;20453;-84
2023/10/24 07:49:54;;;;;;;25.87;18.23;;;;;;;;;;5075956;28;20513;-82
2023/10/24 07:52:20;;;;;;;29.90;20.23;;;;;;;;;;5075463;28;20479;-82
2023/10/24 07:54:46;;;;;;;22.23;16.33;;;;;;;;;;5075351;28;20475;-81
2023/10/24 07:57:14;;;;;;;20.63;16.90;;;;;;;;;;5074528;28;20490;-81
2023/10/24 07:59:41;;;;;;;27.37;17.80;;;;;;;;;;5074047;28;20462;-81
2023/10/24 08:02:08;;;;;;;24.23;17.20;;;;;;;;;;5075234;28;20405;-81
2023/10/24 08:04:35;;;;;;;27.20;16.83;;;;;;;;;;5074853;28;20462;-82
2023/10/24 08:07:03;;;;;;;24.43;16.50;;;;;;;;;;5074632;28;20435;-82
2023/10/24 08:09:29;;;;;;;23.50;18.30;;;;;;;;;;5074651;28;20437;-81
2023/10/24 08:11:55;;;;;;;25.57;16.50;;;;;;;;;;5075505;28;20417;-81
2023/10/24 08:14:23;;;;;;;18.90;16.23;;;;;;;;;;5074954;28;20465;-81
2023/10/24 08:16:50;;;;;;;24.33;17.80;;;;;;;;;;5075072;28;20435;-84
2023/10/24 08:19:16;;;;;;;22.47;16.23;;;;;;;;;;5074586;28;20915;-82
2023/10/24 08:21:42;;;;;;;25.30;17.73;;;;;;;;;;5075396;28;20424;-81
2023/10/24 08:24:09;;;;;;;22.87;15.80;;;;;;;;;;5074605;28;20984;-81
2023/10/24 08:26:35;;;;;;;26.40;15.57;;;;;;;;;;5073910;28;20409;-83
2023/10/24 08:29:01;;;;;;;23.03;15.43;;;;;;;;;;5075063;28;20474;-81
2023/10/24 08:31:29;;;;;;;22.00;16.27;;;;;;;;;;5073790;28;20453;-82
2023/10/24 08:33:55;;;;;;;23.20;15.93;;;;;;;;;;5074846;28;20440;-83
2023/10/24 08:36:22;;;;;;;20.87;15.60;;;;;;;;;;5074356;28;20992;-83
2023/10/24 08:38:48;;;;;;;22.40;16.73;;;;;;;;;;5073363;28;20414;-83
2023/10/24 08:41:15;;;;;;;22.93;15.80;;;;;;;;;;5074848;28;20445;-81
2023/10/24 08:43:41;;;;;;;25.47;16.43;;;;;;;;;;5075135;28;20438;-81
2023/10/24 08:46:08;;;;;;;21.63;17.67;;;;;;;;;;5074377;28;20478;-81
2023/10/24 08:48:35;;;;;;;26.47;17.13;;;;;;;;;;5074953;28;20461;-82
2023/10/24 08:51:02;;;;;;;25.63;17.90;;;;;;;;;;5074111;28;20467;-82
2023/10/24 08:53:29;;;;;;;20.27;16.53;;;;;;;;;;5074839;28;20451;-82
2023/10/24 08:55:57;;;;;;;23.43;16.00;;;;;;;;;;5074156;28;20489;-82
2023/10/24 08:58:24;;;;;;;24.47;17.80;;;;;;;;;;5073939;28;20478;-82
2023/10/24 09:00:51;;;;;;;20.40;18.20;;;;;;;;;;5074414;28;20838;-82
2023/10/24 09:03:18;;;;;;;21.20;17.20;;;;;;;;;;5074495;28;20903;-83
2023/10/24 09:05:46;;;;;;;20.63;17.23;;;;;;;;;;5074083;28;20466;-83
2023/10/24 09:08:12;;;;;;;25.07;19.23;;;;;;;;;;5074413;28;20464;-83
2023/10/24 09:10:39;;;;;;;22.50;18.20;;;;;;;;;;5073930;28;20471;-83
2023/10/24 09:13:05;;;;;;;22.23;19.63;;;;;;;;;;5074326;28;20429;-83
2023/10/24 09:15:34;;;;;;;24.03;18.70;;;;;;;;;;5072252;28;20546;-84
2023/10/24 09:18:02;;;;;;;19.60;16.73;;;;;;;;;;5074504;28;20872;-83
2023/10/24 09:20:30;;;;;;;22.97;17.67;;;;;;;;;;5074211;28;20445;-83
2023/10/24 09:23:02;;;;;;;20.17;18.00;;;;;;;;;;5074071;28;20908;-83
2023/10/24 09:25:29;;;;;;;20.30;17.87;;;;;;;;;;5074500;28;20445;-83
2023/10/24 09:28:14;;;;;;;21.33;16.63;;;;;;;;;;5074466;28;20456;-83
2023/10/24 09:30:40;;;;;;;21.93;18.10;;;;;;;;;;5073602;28;20439;-83
2023/10/24 09:33:06;;;;;;;20.83;16.63;;;;;;;;;;5072848;28;20418;-83
2023/10/24 09:35:33;;;;;;;22.00;16.40;;;;;;;;;;5073188;28;20819;-84
2023/10/24 09:38:00;;;;;;;17.93;15.87;;;;;;;;;;5074451;28;20435;-83
2023/10/24 09:40:33;;;;;;;23.20;15.40;;;;;;;;;;5073931;28;20470;-83
2023/10/24 09:43:00;;;;;;;18.00;15.30;;;;;;;;;;5073887;28;20417;-82
2023/10/24 09:45:27;;;;;;;18.60;14.40;;;;;;;;;;5073423;28;20448;-83
2023/10/24 09:47:54;;;;;;;22.10;15.27;;;;;;;;;;5073955;28;20478;-82
2023/10/24 09:50:20;;;;;;;18.77;15.10;;;;;;;;;;5074379;28;20449;-83
2023/10/24 09:52:47;;;;;;;15.37;13.43;;;;;;;;;;5077689;28;20439;-83
2023/10/24 09:55:17;;;;;;;22.13;13.90;;;;;;;;;;5076993;28;20489;-81
2023/10/24 09:57:45;;;;;;;17.80;13.20;;;;;;;;;;5077500;28;20431;-82
2023/10/24 10:00:12;;;;;;;17.77;13.33;;;;;;;;;;5077041;28;20490;-81
2023/10/24 10:02:40;;;;;;;18.77;13.50;;;;;;;;;;5073744;28;20437;-81
2023/10/24 10:05:07;;;;;;;17.83;13.73;;;;;;;;;;5075882;28;20487;-82
2023/10/24 10:07:34;;;;;;;20.37;15.90;;;;;;;;;;5075163;28;20871;-81
2023/10/24 10:10:04;;;;;;;25.90;13.77;;;;;;;;;;5076453;28;20443;-81
2023/10/24 10:12:32;;;;;;;19.23;13.63;;;;;;;;;;5075506;28;21075;-82
2023/10/24 10:15:14;;;;;;;16.87;13.83;;;;;;;;;;5075553;28;20881;-81
2023/10/24 10:17:45;;;;;;;16.63;13.20;;;;;;;;;;5074230;28;20449;-81
2023/10/24 10:20:17;;;;;;;18.53;13.87;;;;;;;;;;5076623;28;20439;-81
2023/10/24 10:22:50;;;;;;;15.23;13.73;;;;;;;;;;5076789;28;20452;-82
2023/10/24 10:25:24;;;;;;;18.60;14.70;;;;;;;;;;5076574;28;20466;-81
2023/10/24 10:28:00;;;;;;;14.90;13.20;;;;;;;;;;5076295;28;20477;-81
2023/10/24 10:30:30;;;;;;;18.00;11.67;;;;;;;;;;5060226;28;20859;-83
2023/10/24 10:33:02;;;;;;;17.47;14.23;;;;;;;;;;5076844;28;20479;-83
2023/10/24 10:35:43;;;;;;;14.20;12.03;;;;;;;;;;5076690;28;20433;-83
2023/10/24 10:38:10;;;;;;;17.87;12.33;;;;;;;;;;5075879;28;20445;-82
2023/10/24 10:40:36;;;;;;;16.80;13.10;;;;;;;;;;5076879;28;20944;-84
2023/10/24 10:43:04;;;;;;;13.50;12.10;;;;;;;;;;5080836;28;20450;-82
2023/10/24 10:45:31;;;;;;;13.27;11.37;;;;;;;;;;5076266;28;20469;-82
2023/10/24 10:47:59;;;;;;;13.70;12.30;;;;;;;;;;5076032;28;20981;-83
2023/10/24 10:50:27;;;;;;;15.10;12.20;;;;;;;;;;5076097;28;20435;-82
2023/10/24 10:53:12;;;;;;;13.13;11.20;;;;;;;;;;5075537;28;20453;-83
2023/10/24 10:55:45;;;;;;;15.33;11.50;;;;;;;;;;5076863;28;20776;-83
2023/10/24 10:58:20;;;;;;;11.67;10.33;;;;;;;;;;5075319;28;20920;-82
2023/10/24 11:00:51;;;;;;;11.80;10.70;;;;;;;;;;5058344;28;20473;-82
2023/10/24 11:03:28;;;;;;;14.47;11.23;;;;;;;;;;5074778;28;20482;-82
2023/10/24 11:05:54;;;;;;;11.90;10.70;;;;;;;;;;5075642;28;20895;-82
2023/10/24 11:08:24;;;;;;;12.60;10.70;;;;;;;;;;5075551;28;20823;-83
2023/10/24 11:10:51;;;;;;;11.90;10.73;;;;;;;;;;5075858;28;20849;-83
2023/10/24 11:13:32;;;;;;;13.23;10.83;;;;;;;;;;5074866;28;20449;-82
2023/10/24 11:16:01;;;;;;;12.17;11.03;;;;;;;;;;5072733;28;20443;-82
2023/10/24 11:18:28;;;;;;;12.83;11.60;;;;;;;;;;5075516;28;20484;-83
2023/10/24 11:20:54;;;;;;;12.53;11.33;;;;;;;;;;5075429;28;20804;-83
2023/10/24 11:23:21;;;;;;;11.83;10.80;;;;;;;;;;5075070;28;20461;-83
2023/10/24 11:25:48;;;;;;;13.10;10.90;;;;;;;;;;5076087;28;20442;-83
2023/10/24 11:28:15;;;;;;;12.73;11.53;;;;;;;;;;5075057;28;20997;-83
2023/10/24 11:30:42;;;;;;;11.17;10.07;;;;;;;;;;5075255;28;20413;-82
2023/10/24 11:33:10;;;;;;;10.00;9.10;;;;;;;;;;5057237;28;20446;-82
2023/10/24 11:35:36;;;;;;;11.00;9.57;;;;;;;;;;5074761;28;20435;-82
2023/10/24 11:38:02;;;;;;;10.33;9.33;;;;;;;;;;5074586;28;20471;-83
2023/10/24 11:40:29;;;;;;;13.23;11.93;;;;;;;;;;5073614;28;20414;-83
2023/10/24 11:43:03;;;;;;;14.80;10.27;;;;;;;;;;5074496;28;20442;-83
2023/10/24 11:45:29;;;;;;;12.57;10.50;;;;;;;;;;5075177;28;20778;-83
2023/10/24 11:47:56;;;;;;;11.73;10.53;;;;;;;;;;5073117;28;20524;-83
2023/10/24 11:50:37;;;;;;;14.20;11.20;;;;;;;;;;5074694;28;20501;-83
2023/10/24 11:53:03;;;;;;;11.43;10.43;;;;;;;;;;5074089;28;21031;-83
2023/10/24 11:55:31;;;;;;;17.50;11.70;;;;;;;;;;5074596;28;20808;-83
2023/10/24 11:57:58;;;;;;;11.27;10.17;;;;;;;;;;5074488;28;20972;-83
2023/10/24 12:00:27;;;;;;;12.67;11.43;;;;;;;;;;5073653;28;20414;-83
2023/10/24 12:02:54;;;;;;;13.80;11.50;;;;;;;;;;5073040;28;20467;-84
2023/10/24 12:05:20;;;;;;;12.07;10.87;;;;;;;;;;5073275;28;20978;-83
2023/10/24 12:07:54;;;;;;;12.30;11.10;;;;;;;;;;5074123;28;20834;-83
2023/10/24 12:10:20;;;;;;;12.83;11.53;;;;;;;;;;5074269;28;20449;-84
2023/10/24 12:12:46;;;;;;;13.47;11.60;;;;;;;;;;5074008;28;20534;-83
2023/10/24 12:15:15;;;;;;;11.13;9.93;;;;;;;;;;5075439;28;20440;-84
2023/10/24 12:17:43;;;;;;;11.63;10.53;;;;;;;;;;5074387;28;20470;-83
2023/10/24 12:20:10;;;;;;;11.37;10.17;;;;;;;;;;5075046;28;20420;-83
2023/10/24 12:22:36;;;;;;;11.10;10.10;;;;;;;;;;5073692;28;20995;-83
2023/10/24 12:25:05;;;;;;;15.70;9.93;;;;;;;;;;5074003;28;20437;-83
2023/10/24 12:27:34;;;;;;;9.37;8.47;;;;;;;;;;5074825;28;20463;-84
2023/10/24 12:30:00;;;;;;;10.53;9.53;;;;;;;;;;5073725;28;20486;-83
2023/10/24 12:32:27;;;;;;;10.20;8.97;;;;;;;;;;5074995;28;20456;-82
2023/10/24 12:34:53;;;;;;;10.57;9.47;;;;;;;;;;5074775;28;20469;-83
2023/10/24 12:37:19;;;;;;;10.47;9.47;;;;;;;;;;5074518;28;20848;-82
2023/10/24 12:39:46;;;;;;;9.97;8.13;;;;;;;;;;5074772;28;20432;-82
2023/10/24 12:42:14;;;;;;;8.97;7.60;;;;;;;;;;5074529;28;20512;-82
2023/10/24 12:44:40;;;;;;;8.30;7.50;;;;;;;;;;5073908;28;20446;-82
2023/10/24 12:47:08;;;;;;;7.90;7.20;;;;;;;;;;5073827;28;20970;-82
2023/10/24 12:49:35;;;;;;;7.40;6.60;;;;;;;;;;5075084;28;20438;-84
2023/10/24 12:52:01;;;;;;;7.67;6.93;;;;;;;;;;5074460;28;20437;-83
2023/10/24 12:54:27;;;;;;;6.63;6.00;;;;;;;;;;5074490;28;20455;-84
2023/10/24 12:56:54;;;;;;;10.97;7.00;;;;;;;;;;5074176;28;20471;-84
2023/10/24 12:59:21;;;;;;;6.43;5.83;;;;;;;;;;5073132;28;20418;-83
2023/10/24 13:01:49;;;;;;;9.00;6.50;;;;;;;;;;5073051;28;20806;-83
2023/10/24 13:04:15;;;;;;;9.03;6.87;;;;;;;;;;5074674;28;20939;-84
2023/10/24 13:06:41;;;;;;;6.57;5.90;;;;;;;;;;5074437;28;20473;-83
2023/10/24 13:09:08;;;;;;;6.03;5.43;;;;;;;;;;5073233;28;20454;-84
2023/10/24 13:11:36;;;;;;;8.23;6.80;;;;;;;;;;5074469;28;20921;-83
2023/10/24 13:14:03;;;;;;;14.77;7.03;;;;;;;;;;5074860;28;20437;-84
2023/10/24 13:16:31;;;;;;;9.13;6.70;;;;;;;;;;5072890;28;20478;-83
2023/10/24 13:18:58;;;;;;;9.83;6.43;;;;;;;;;;5074338;28;20443;-84
2023/10/24 13:21:24;;;;;;;7.27;6.30;;;;;;;;;;5072544;28;20444;-83
2023/10/24 13:23:51;;;;;;;7.83;7.13;;;;;;;;;;5074475;28;20474;-83
2023/10/24 13:26:17;;;;;;;7.80;7.00;;;;;;;;;;5075338;28;20438;-84
2023/10/24 13:28:43;;;;;;;7.40;6.70;;;;;;;;;;5077753;28;20435;-83
2023/10/24 13:31:10;;;;;;;8.57;6.73;;;;;;;;;;5077659;28;20447;-83
2023/10/24 13:33:38;;;;;;;7.57;6.87;;;;;;;;;;5078162;28;20441;-83
2023/10/24 13:36:04;;;;;;;7.67;6.90;;;;;;;;;;5078015;28;20452;-83
2023/10/24 13:38:31;;;;;;;10.03;7.20;;;;;;;;;;5078394;28;20516;-84
2023/10/24 13:40:57;;;;;;;7.27;6.67;;;;;;;;;;5077318;28;20434;-84
2023/10/24 13:43:24;;;;;;;7.73;7.00;;;;;;;;;;5078119;28;20435;-84
2023/10/24 13:45:51;;;;;;;6.97;6.37;;;;;;;;;;5078067;28;20438;-84
2023/10/24 13:48:17;;;;;;;7.67;6.97;;;;;;;;;;5059486;28;20474;-83
2023/10/24 13:50:45;;;;;;;10.83;7.53;;;;;;;;;;5076449;28;21057;-84
2023/10/24 13:53:12;;;;;;;7.37;6.67;;;;;;;;;;5077107;28;20448;-83
2023/10/24 13:55:38;;;;;;;8.43;7.30;;;;;;;;;;5077860;28;20844;-83
2023/10/24 13:58:05;;;;;;;9.33;6.53;;;;;;;;;;5077545;28;20474;-83
2023/10/24 14:00:31;;;;;;;7.50;6.80;;;;;;;;;;5077782;28;20416;-84
2023/10/24 14:02:58;;;;;;;9.37;7.60;;;;;;;;;;5074537;28;20808;-83
2023/10/24 14:05:24;;;;;;;7.60;7.00;;;;;;;;;;5076022;28;20466;-83
2023/10/24 14:07:52;;;;;;;7.20;6.53;;;;;;;;;;5076723;28;20970;-84
2023/10/24 14:10:19;;;;;;;8.17;7.47;;;;;;;;;;5077544;28;20489;-84
2023/10/24 14:12:46;;;;;;;8.40;7.60;;;;;;;;;;5077179;28;20434;-83
2023/10/24 14:15:13;;;;;;;8.97;8.13;;;;;;;;;;5076133;28;20470;-84
2023/10/24 14:17:39;;;;;;;8.03;7.27;;;;;;;;;;5058539;28;20471;-83
2023/10/24 14:20:07;;;;;;;8.57;7.20;;;;;;;;;;5075896;28;20797;-84
2023/10/24 14:22:34;;;;;;;7.87;7.00;;;;;;;;;;5075279;28;20876;-83